Time;durP1;ratioP1;P1;durP2;ratioP2;P2;SDS_P1;SDS_P2;PMS_P1;PMS_P2;Temp;Humidity;BMP_temperature;BMP_pressure;BME280_temperature;BME280_humidity;BME280_pressure;Samples;Min_cycle;Max_cycle;Signal;HPM_P1;HPM_P2
2022/03/21 00:01:00;;;;;;;56.53;29.08;;;;;;;-0.25;100.00;102822.84;5116459;28;20069;-72
2022/03/21 00:06:47;;;;;;;56.83;29.98;;;;;;;-0.25;100.00;102828.94;5116121;28;20084;-73
2022/03/21 00:09:12;;;;;;;56.70;29.17;;;;;;;-0.23;100.00;102836.75;5115855;28;20118;-72
2022/03/21 00:14:59;;;;;;;54.65;29.58;;;;;;;-0.32;100.00;102815.31;5116083;28;20035;-72
2022/03/21 00:24:44;;;;;;;58.70;29.98;;;;;;;-0.39;100.00;102840.28;5116045;28;20552;-73
2022/03/21 00:30:32;;;;;;;60.03;31.45;;;;;;;-0.38;100.00;102833.25;5115864;28;20033;-73
2022/03/21 00:36:19;;;;;;;56.15;28.63;;;;;;;-0.45;100.00;102832.78;5115477;28;20073;-73
2022/03/21 00:42:07;;;;;;;56.38;29.98;;;;;;;-0.58;100.00;102850.22;5115441;28;20038;-71
2022/03/21 00:44:33;;;;;;;56.03;28.85;;;;;;;-0.62;100.00;102846.94;5096227;28;20109;-71
2022/03/21 00:46:58;;;;;;;55.10;28.60;;;;;;;-0.61;100.00;102855.66;5115160;28;20038;-72
2022/03/21 00:56:15;;;;;;;54.35;30.10;;;;;;;-0.63;100.00;102847.88;5115158;28;20081;-71
2022/03/21 00:58:40;;;;;;;55.70;27.60;;;;;;;-0.70;100.00;102850.97;5096760;28;20041;-71
2022/03/21 01:04:27;;;;;;;54.80;29.02;;;;;;;-0.71;100.00;102859.78;5115265;28;20077;-72
2022/03/21 01:14:15;;;;;;;60.17;30.08;;;;;;;-0.80;100.00;102862.94;5115015;28;20502;-73
2022/03/21 01:20:04;;;;;;;57.22;29.25;;;;;;;-0.84;100.00;102864.91;5114652;28;20380;-72
2022/03/21 01:22:29;;;;;;;61.60;30.90;;;;;;;-0.84;100.00;102864.91;5095543;28;20100;-72
2022/03/21 01:28:16;;;;;;;60.88;30.63;;;;;;;-0.97;100.00;102859.53;5111448;28;20109;-72
2022/03/21 01:34:03;;;;;;;69.10;31.80;;;;;;;-1.00;100.00;102867.56;5114671;28;20046;-72
2022/03/21 01:39:50;;;;;;;66.22;33.80;;;;;;;-1.04;100.00;102852.94;5114762;28;20061;-71
2022/03/21 01:45:38;;;;;;;65.63;30.52;;;;;;;-1.05;100.00;102863.53;5114582;28;20176;-72
2022/03/21 01:48:04;;;;;;;60.10;30.15;;;;;;;-1.06;100.00;102865.31;5113200;28;20118;-72
2022/03/21 01:50:29;;;;;;;57.83;30.75;;;;;;;-1.08;100.00;102869.81;5114020;28;20110;-72
2022/03/21 01:55:43;;;;;;;59.55;32.45;;;;;;;-1.05;100.00;102874.88;5113110;28;20050;-72
2022/03/21 01:59:04;;;;;;;60.85;30.20;;;;;;;-1.09;100.00;102867.28;5114035;28;20408;-71
2022/03/21 02:01:29;;;;;;;62.05;30.33;;;;;;;-1.10;100.00;102869.06;5095712;28;20023;-72
2022/03/21 02:03:54;;;;;;;58.30;28.92;;;;;;;-1.16;100.00;102868.53;5113634;28;20039;-72
2022/03/21 02:09:42;;;;;;;63.17;31.63;;;;;;;-1.27;100.00;102864.75;5114020;28;20437;-72
2022/03/21 02:12:08;;;;;;;56.83;30.52;;;;;;;-1.26;100.00;102862.97;5087481;28;20032;-72
2022/03/21 02:14:39;;;;;;;62.75;29.52;;;;;;;-1.28;100.00;102864.84;5095447;28;20024;-72
2022/03/21 02:17:04;;;;;;;55.15;29.05;;;;;;;-1.37;100.00;102863.59;5094200;28;20173;-73
2022/03/21 02:19:31;;;;;;;57.83;28.88;;;;;;;-1.30;100.00;102875.44;5113416;28;20107;-71
2022/03/21 02:22:32;;;;;;;58.30;29.80;;;;;;;-1.28;100.00;102878.81;5112762;28;20059;-72
2022/03/21 02:25:25;;;;;;;54.13;29.55;;;;;;;-1.29;100.00;102878.91;5113599;28;20023;-72
2022/03/21 02:27:52;;;;;;;53.40;28.88;;;;;;;-1.32;100.00;102874.66;5112730;28;20067;-71
2022/03/21 02:30:18;;;;;;;57.55;28.30;;;;;;;-1.35;100.00;102868.75;5095206;28;20528;-72
2022/03/21 02:32:45;;;;;;;54.72;29.90;;;;;;;-1.30;100.00;102879.81;5095166;28;20034;-72
2022/03/21 02:35:13;;;;;;;56.13;29.98;;;;;;;-1.29;100.00;102881.53;5112366;28;20036;-72
2022/03/21 02:41:01;;;;;;;49.97;27.90;;;;;;;-1.30;100.00;102880.66;5113877;28;20051;-71
2022/03/21 02:43:26;;;;;;;57.22;29.50;;;;;;;-1.32;100.00;102885.16;5113306;28;20401;-72
2022/03/21 02:45:51;;;;;;;56.97;29.05;;;;;;;-1.37;100.00;102883.75;5112311;28;20122;-71
2022/03/21 02:48:18;;;;;;;61.85;32.30;;;;;;;-1.45;100.00;102878.91;5094864;28;20019;-72
2022/03/21 02:54:05;;;;;;;59.58;30.60;;;;;;;-1.44;100.00;102872.75;5113527;28;20054;-72
2022/03/21 02:56:31;;;;;;;66.80;33.53;;;;;;;-1.40;100.00;102876.03;5094704;28;20027;-71
2022/03/21 02:58:56;;;;;;;75.80;36.72;;;;;;;-1.40;100.00;102868.16;5112161;28;20044;-73
2022/03/21 03:04:43;;;;;;;66.25;31.98;;;;;;;-1.42;100.00;102873.50;5113528;28;20046;-71
2022/03/21 03:10:31;;;;;;;58.90;29.25;;;;;;;-1.61;100.00;102862.34;5113168;28;20084;-71
2022/03/21 03:16:18;;;;;;;58.22;30.35;;;;;;;-1.71;100.00;102863.78;5113013;28;20044;-73
2022/03/21 03:18:44;;;;;;;57.28;29.80;;;;;;;-1.71;100.00;102874.28;5094476;28;20028;-71
2022/03/21 03:24:33;;;;;;;59.38;30.88;;;;;;;-1.81;100.00;102873.91;5112802;28;20058;-71
2022/03/21 03:30:20;;;;;;;61.60;31.73;;;;;;;-1.79;100.00;102858.94;5111863;28;20084;-70
2022/03/21 03:32:47;;;;;;;65.50;32.55;;;;;;;-1.77;100.00;102870.19;5111689;28;20166;-70
2022/03/21 03:35:13;;;;;;;68.13;32.85;;;;;;;-1.72;100.00;102870.81;5112466;28;20027;-70
2022/03/21 03:41:00;;;;;;;55.67;31.08;;;;;;;-1.65;100.00;102874.78;5112665;28;20062;-71
2022/03/21 03:46:47;;;;;;;67.68;35.15;;;;;;;-1.72;100.00;102881.28;5112469;28;20353;-71
2022/03/21 03:49:12;;;;;;;80.57;37.38;;;;;;;-1.73;100.00;102878.75;5094028;28;20019;-70
2022/03/21 03:51:37;;;;;;;83.30;37.90;;;;;;;-1.75;100.00;102880.59;5111383;28;20487;-72
2022/03/21 03:54:03;;;;;;;81.80;38.53;;;;;;;-1.78;100.00;102880.75;5112123;28;20444;-70
2022/03/21 03:56:28;;;;;;;80.90;37.47;;;;;;;-1.82;100.00;102884.47;5111260;28;20452;-72
2022/03/21 04:02:15;;;;;;;66.72;34.17;;;;;;;-1.96;100.00;102885.25;5112398;28;20075;-70
2022/03/21 04:04:40;;;;;;;71.45;34.60;;;;;;;-1.92;100.00;102886.75;5112159;28;20039;-71
2022/03/21 04:07:05;;;;;;;70.50;34.80;;;;;;;-1.89;100.00;102897.94;5093879;28;20041;-71
2022/03/21 04:12:53;;;;;;;67.10;33.25;;;;;;;-1.90;100.00;102896.22;5112332;28;20057;-71
2022/03/21 04:15:20;;;;;;;71.90;35.97;;;;;;;-1.95;100.00;102892.19;5111113;28;20036;-70
2022/03/21 04:17:46;;;;;;;69.55;35.03;;;;;;;-1.97;100.00;102894.03;5111800;28;20032;-70
2022/03/21 04:20:11;;;;;;;71.63;33.97;;;;;;;-2.03;100.00;102894.34;5093026;28;20054;-70
2022/03/21 04:22:37;;;;;;;69.88;34.05;;;;;;;-2.04;100.00;102892.63;5111792;28;20020;-71
2022/03/21 04:25:04;;;;;;;73.45;37.20;;;;;;;-2.16;100.00;102894.16;5111795;28;20063;-71
2022/03/21 04:27:29;;;;;;;78.03;35.63;;;;;;;-2.12;100.00;102889.59;5110761;28;20036;-70
2022/03/21 04:29:55;;;;;;;76.72;36.65;;;;;;;-2.07;100.00;102892.81;5093473;28;20067;-70
2022/03/21 04:32:20;;;;;;;76.65;37.85;;;;;;;-2.11;100.00;102876.41;5110909;28;20430;-70
2022/03/21 04:34:46;;;;;;;75.43;36.67;;;;;;;-2.05;100.00;102891.78;5093388;28;20551;-71
2022/03/21 04:37:11;;;;;;;82.25;38.05;;;;;;;-2.07;100.00;102883.16;5111718;28;20490;-70
2022/03/21 04:39:36;;;;;;;74.15;35.40;;;;;;;-1.98;100.00;102889.72;5092896;28;20040;-70
2022/03/21 04:42:02;;;;;;;80.82;38.78;;;;;;;-1.96;100.00;102885.25;5096491;28;20054;-70
2022/03/21 04:44:27;;;;;;;86.45;38.88;;;;;;;-1.94;100.00;102886.00;5114283;28;20092;-70
2022/03/21 04:50:14;;;;;;;72.30;36.17;;;;;;;-1.97;100.00;102881.78;5115470;28;20039;-71
2022/03/21 04:52:40;;;;;;;66.10;32.67;;;;;;;-1.98;100.00;102892.34;5096548;28;20015;-70
2022/03/21 04:55:09;;;;;;;71.85;33.50;;;;;;;-1.98;100.00;102898.44;5096570;28;20031;-70
2022/03/21 05:00:56;;;;;;;72.00;34.15;;;;;;;-2.01;100.00;102903.00;5115136;28;20390;-70
2022/03/21 05:06:43;;;;;;;72.28;34.42;;;;;;;-2.05;100.00;102904.06;5114929;28;20070;-70
2022/03/21 05:09:08;;;;;;;75.50;36.42;;;;;;;-2.11;100.00;102914.88;5114101;28;20027;-70
2022/03/21 05:11:33;;;;;;;80.68;38.13;;;;;;;-2.16;100.00;102914.25;5096473;28;20023;-70
2022/03/21 05:13:59;;;;;;;70.57;33.80;;;;;;;-2.16;100.00;102911.66;5095733;28;20119;-71
2022/03/21 05:16:24;;;;;;;84.75;37.95;;;;;;;-2.14;100.00;102917.66;5114604;28;20028;-71
2022/03/21 05:18:50;;;;;;;87.85;40.25;;;;;;;-2.16;100.00;102922.13;5114623;28;20491;-71
2022/03/21 05:21:16;;;;;;;75.93;35.88;;;;;;;-2.17;100.00;102923.91;5113803;28;20036;-71
2022/03/21 05:39:15;;;;;;;81.40;38.30;;;;;;;-2.20;100.00;102914.44;5114198;28;20111;-71
2022/03/21 05:41:40;;;;;;;81.40;37.65;;;;;;;-2.15;100.00;102921.19;5096015;28;20019;-71
2022/03/21 05:44:05;;;;;;;79.28;39.08;;;;;;;-2.17;100.00;102916.03;5095438;28;20075;-72
2022/03/21 05:49:52;;;;;;;74.05;34.83;;;;;;;-2.09;100.00;102911.22;5114650;28;20392;-70
2022/03/21 05:52:17;;;;;;;82.13;39.30;;;;;;;-2.05;100.00;102914.53;5113240;28;20023;-71
2022/03/21 05:54:43;;;;;;;86.50;39.03;;;;;;;-2.03;100.00;102916.16;5113256;28;20075;-72
2022/03/21 05:57:08;;;;;;;87.88;38.13;;;;;;;-1.84;100.00;102920.41;5113923;28;20077;-72
2022/03/21 06:05:40;;;;;;;92.38;39.85;;;;;;;-1.06;100.00;102924.84;5114375;28;20051;-70
2022/03/21 06:11:29;;;;;;;87.50;40.25;;;;;;;-0.45;100.00;102923.91;5113594;28;20154;-72
2022/03/21 06:17:16;;;;;;;94.60;40.45;;;;;;;0.63;100.00;102934.81;5113999;28;20089;-70
2022/03/21 06:23:03;;;;;;;87.50;38.05;;;;;;;1.63;100.00;102929.94;5113211;28;20483;-73
2022/03/21 06:28:50;;;;;;;84.03;38.88;;;;;;;2.77;100.00;102946.47;5113827;28;20091;-72
2022/03/21 06:31:15;;;;;;;93.72;43.00;;;;;;;3.35;99.82;102951.91;5113402;28;20020;-73
2022/03/21 06:37:02;;;;;;;96.60;43.80;;;;;;;4.58;92.36;102952.03;5113545;28;20042;-72
2022/03/21 06:42:49;;;;;;;99.38;46.20;;;;;;;5.70;87.28;102949.81;5113568;28;20416;-71
2022/03/21 06:48:36;;;;;;;92.18;44.30;;;;;;;6.75;82.60;102956.63;5113516;28;20042;-72
2022/03/21 06:51:01;;;;;;;98.78;43.40;;;;;;;7.20;81.26;102953.44;5113128;28;20023;-73
2022/03/21 06:56:48;;;;;;;117.15;50.50;;;;;;;8.49;76.17;102960.88;5113059;28;20035;-72
2022/03/21 06:59:14;;;;;;;116.90;49.50;;;;;;;8.98;72.58;102965.81;5094250;28;20039;-73
2022/03/21 07:01:39;;;;;;;112.33;50.17;;;;;;;9.45;69.92;102967.38;5112930;28;20269;-69
2022/03/21 07:07:27;;;;;;;123.00;51.45;;;;;;;10.68;65.90;102977.84;5113329;28;20034;-70
2022/03/21 07:13:14;;;;;;;132.15;56.13;;;;;;;12.39;59.83;102976.00;5113215;28;20122;-69
2022/03/21 07:15:40;;;;;;;124.85;56.05;;;;;;;12.90;57.95;102979.13;5093553;28;20551;-68
2022/03/21 07:18:05;;;;;;;126.43;56.58;;;;;;;13.05;56.26;102984.59;5112642;28;20099;-71
2022/03/21 07:20:31;;;;;;;136.05;57.67;;;;;;;12.98;57.30;102987.13;5111834;28;20048;-69
2022/03/21 07:26:18;;;;;;;143.98;57.17;;;;;;;13.57;55.85;102984.72;5111902;28;20046;-70
2022/03/21 07:28:43;;;;;;;143.48;59.88;;;;;;;13.63;54.58;102978.66;5094358;28;20019;-69
2022/03/21 07:34:30;;;;;;;136.77;59.38;;;;;;;14.63;52.66;102972.84;5112545;28;20039;-70
2022/03/21 07:40:18;;;;;;;134.35;57.85;;;;;;;14.14;52.75;102978.78;5112532;28;20049;-69
2022/03/21 07:42:45;;;;;;;137.85;62.17;;;;;;;13.77;55.07;102977.00;5112243;28;20024;-69
2022/03/21 07:51:18;;;;;;;122.30;56.42;;;;;;;14.02;55.13;102993.72;5112399;28;20548;-70
2022/03/21 07:53:43;;;;;;;119.10;51.17;;;;;;;14.32;54.74;102990.03;5112241;28;20027;-70
2022/03/21 07:56:09;;;;;;;120.40;51.70;;;;;;;15.00;53.96;102983.44;5093394;28;20043;-69
2022/03/21 07:58:35;;;;;;;113.57;51.13;;;;;;;15.98;51.00;102995.34;5112222;28;20023;-71
2022/03/21 08:04:22;;;;;;;110.43;46.83;;;;;;;16.55;48.24;102986.97;5112573;28;20047;-70
2022/03/21 08:06:47;;;;;;;102.20;46.40;;;;;;;16.62;48.82;102995.94;5093290;28;20040;-70
2022/03/21 08:09:13;;;;;;;92.57;44.70;;;;;;;17.08;46.88;102992.59;5093876;28;20281;-69
2022/03/21 08:11:38;;;;;;;100.20;45.72;;;;;;;17.49;46.38;102989.72;5111881;28;20020;-71
2022/03/21 08:17:26;;;;;;;78.25;37.28;;;;;;;17.57;46.06;103002.22;5115795;28;20139;-70
2022/03/21 08:19:52;;;;;;;76.82;36.28;;;;;;;17.71;44.78;103000.38;5096875;28;20043;-71
2022/03/21 08:22:19;;;;;;;82.53;37.30;;;;;;;17.37;45.72;103006.78;5115419;28;20031;-70
2022/03/21 08:24:45;;;;;;;86.07;36.63;;;;;;;16.95;47.21;103003.34;5114687;28;20047;-71
2022/03/21 08:27:10;;;;;;;90.80;36.67;;;;;;;17.01;46.14;102997.97;5115466;28;20047;-72
2022/03/21 08:29:35;;;;;;;71.67;34.47;;;;;;;17.26;44.70;102994.69;5114706;28;20266;-71
2022/03/21 08:35:22;;;;;;;70.20;32.05;;;;;;;18.62;43.20;102995.84;5115441;28;20066;-69
2022/03/21 08:37:48;;;;;;;71.60;35.28;;;;;;;19.65;40.97;103001.88;5115085;28;20024;-71
2022/03/21 08:40:14;;;;;;;69.10;35.70;;;;;;;20.59;39.56;103003.47;5115203;28;20460;-71
2022/03/21 08:42:39;;;;;;;68.10;34.10;;;;;;;21.56;37.51;102998.75;5096253;28;20130;-71
2022/03/21 08:45:07;;;;;;;69.95;33.40;;;;;;;22.44;35.49;102989.59;5097004;28;20107;-71
2022/03/21 08:47:34;;;;;;;70.75;33.65;;;;;;;22.99;33.84;102997.25;5114287;28;20040;-71
2022/03/21 08:50:00;;;;;;;69.72;36.40;;;;;;;23.60;33.44;102997.53;5115018;28;20475;-71
2022/03/21 08:52:26;;;;;;;80.57;34.30;;;;;;;24.11;31.35;102990.91;5114277;28;20089;-71
2022/03/21 08:54:51;;;;;;;68.88;34.13;;;;;;;24.51;31.31;103004.31;5114661;28;20079;-72
2022/03/21 09:00:38;;;;;;;68.15;33.35;;;;;;;25.37;28.80;102993.47;5114924;28;20038;-70
2022/03/21 09:06:25;;;;;;;57.67;31.42;;;;;;;24.74;27.69;102996.91;5115100;28;20042;-70
2022/03/21 09:12:12;;;;;;;58.13;31.08;;;;;;;22.92;30.53;102995.75;5115091;28;20058;-70
2022/03/21 09:14:37;;;;;;;71.43;32.67;;;;;;;22.45;32.14;103004.88;5096495;28;20391;-71
2022/03/21 09:17:04;;;;;;;67.82;31.80;;;;;;;23.03;30.79;102995.69;5095678;28;20321;-72
2022/03/21 09:22:51;;;;;;;70.18;33.28;;;;;;;23.63;29.91;102997.03;5114765;28;20136;-71
2022/03/21 09:28:40;;;;;;;66.78;31.92;;;;;;;23.11;30.94;102984.38;5113491;28;20334;-72
2022/03/21 09:31:09;;;;;;;65.70;32.63;;;;;;;22.98;30.85;102983.88;5114297;28;20031;-73
2022/03/21 09:33:36;;;;;;;65.47;31.50;;;;;;;22.66;31.14;102987.06;5113508;28;20052;-72
2022/03/21 09:36:04;;;;;;;66.22;30.60;;;;;;;22.80;31.45;102982.13;5095844;28;20020;-72
2022/03/21 09:41:52;;;;;;;57.72;29.40;;;;;;;21.91;32.46;102985.13;5114697;28;20489;-72
2022/03/21 09:44:17;;;;;;;59.00;29.95;;;;;;;21.29;33.68;102973.00;5095113;28;20024;-71
2022/03/21 09:46:45;;;;;;;59.43;30.27;;;;;;;20.61;34.78;102974.16;5113913;28;20046;-71
2022/03/21 09:49:12;;;;;;;53.72;29.83;;;;;;;20.53;35.96;102977.22;5095676;28;20309;-72
2022/03/21 09:51:39;;;;;;;60.75;30.00;;;;;;;20.58;34.75;102984.69;5113259;28;20558;-72
2022/03/21 09:54:05;;;;;;;58.13;28.88;;;;;;;20.65;35.90;102969.09;5114036;28;20486;-71
2022/03/21 09:56:30;;;;;;;63.42;29.77;;;;;;;20.93;35.42;102974.78;5094901;28;20044;-72
2022/03/21 09:58:59;;;;;;;56.03;28.13;;;;;;;21.51;33.25;102973.28;5095588;28;20024;-73
2022/03/21 10:01:29;;;;;;;49.20;25.55;;;;;;;21.98;32.44;102970.59;5113921;28;20396;-73
2022/03/21 10:03:55;;;;;;;51.22;27.33;;;;;;;21.86;32.46;102979.56;5113177;28;20442;-74
2022/03/21 10:06:37;;;;;;;63.20;26.95;;;;;;;21.37;34.60;102974.56;5113847;28;20028;-72
2022/03/21 10:09:05;;;;;;;54.33;28.20;;;;;;;21.26;33.05;102960.69;5112940;28;20046;-74
2022/03/21 10:11:31;;;;;;;54.35;26.83;;;;;;;21.86;33.27;102959.69;5113621;28;20093;-74
2022/03/21 10:13:56;;;;;;;44.92;25.42;;;;;;;23.58;30.55;102965.00;5112509;28;20075;-74
2022/03/21 10:16:22;;;;;;;51.05;25.00;;;;;;;24.73;28.27;102960.50;5094956;28;20418;-75
2022/03/21 10:18:53;;;;;;;48.88;24.92;;;;;;;24.55;29.48;102963.59;5095685;28;20545;-75
2022/03/21 10:21:20;;;;;;;41.17;23.52;;;;;;;23.83;28.07;102959.09;5087976;28;20050;-75
2022/03/21 10:27:28;;;;;;;47.22;24.17;;;;;;;21.89;32.78;102959.19;5113880;28;20047;-73
2022/03/21 10:29:59;;;;;;;45.40;25.02;;;;;;;22.42;30.82;102955.47;5113544;28;20102;-72
2022/03/21 10:35:47;;;;;;;46.00;24.48;;;;;;;21.41;31.94;102963.00;5113529;28;20119;-72
2022/03/21 10:41:36;;;;;;;45.97;25.25;;;;;;;21.21;33.01;102938.78;5113500;28;20102;-75
2022/03/21 10:44:02;;;;;;;47.88;24.05;;;;;;;22.38;31.59;102949.69;5112317;28;20045;-75
2022/03/21 10:49:49;;;;;;;49.08;24.45;;;;;;;20.59;34.32;102946.38;5113463;28;20039;-74
2022/03/21 10:52:19;;;;;;;46.63;24.43;;;;;;;20.14;37.04;102951.28;5112970;28;20024;-75
2022/03/21 10:54:48;;;;;;;47.35;24.48;;;;;;;19.74;36.84;102950.88;5112365;28;20380;-76
2022/03/21 10:57:36;;;;;;;49.25;26.20;;;;;;;19.84;37.00;102945.75;5112706;28;20043;-76
2022/03/21 11:00:20;;;;;;;43.58;24.13;;;;;;;19.88;37.20;102941.53;5111969;28;20050;-76
2022/03/21 11:03:13;;;;;;;47.35;26.25;;;;;;;20.41;35.44;102940.97;5094624;28;20023;-76
2022/03/21 11:09:01;;;;;;;48.80;24.88;;;;;;;;;;5113110;28;20069;-76
2022/03/21 11:11:26;;;;;;;47.03;24.75;;;;;;;21.88;32.58;102917.50;5111814;28;20092;-77
2022/03/21 11:13:54;;;;;;;42.35;24.50;;;;;;;20.98;34.99;102925.94;5112753;28;20035;-76
2022/03/21 11:20:05;;;;;;;49.10;25.08;;;;;;;18.61;40.06;102926.41;5112948;28;20054;-77
2022/03/21 11:22:32;;;;;;;47.15;25.75;;;;;;;19.28;38.33;102924.09;5093542;28;20101;-76
2022/03/21 11:25:06;;;;;;;54.63;25.83;;;;;;;19.84;38.31;102928.63;5112670;28;20028;-77
2022/03/21 11:31:17;;;;;;;46.05;25.35;;;;;;;20.47;36.10;102931.88;5112923;28;20047;-76
2022/03/21 11:33:54;;;;;;;43.55;23.40;;;;;;;19.80;37.07;102920.13;5111860;28;20023;-75
2022/03/21 11:36:21;;;;;;;49.80;25.73;;;;;;;19.45;38.87;102920.63;5112316;28;20032;-75
2022/03/21 11:38:47;;;;;;;46.70;24.65;;;;;;;19.92;38.08;102922.91;5093918;28;20501;-74
2022/03/21 11:41:15;;;;;;;48.03;24.95;;;;;;;21.07;36.38;102917.44;5111641;28;20032;-73
2022/03/21 11:47:23;;;;;;;44.78;24.25;;;;;;;21.59;35.03;102913.03;5112670;28;20118;-75
2022/03/21 11:49:48;;;;;;;51.15;25.95;;;;;;;22.53;33.72;102911.78;5111578;28;20077;-75
2022/03/21 11:52:14;;;;;;;49.33;25.73;;;;;;;23.05;32.84;102913.56;5111432;28;20032;-75
2022/03/21 11:54:39;;;;;;;45.88;24.80;;;;;;;23.08;32.00;102913.91;5112266;28;20023;-76
2022/03/21 11:57:25;;;;;;;46.53;26.33;;;;;;;23.23;32.63;102896.97;5093460;28;20031;-76
2022/03/21 11:59:52;;;;;;;47.97;24.65;;;;;;;23.66;31.91;102912.66;5112096;28;20511;-75
2022/03/21 12:02:17;;;;;;;48.22;23.20;;;;;;;24.07;30.42;102903.13;5112077;28;20364;-75
2022/03/21 12:04:57;;;;;;;47.57;24.90;;;;;;;23.52;31.96;102907.78;5111372;28;20081;-76
2022/03/21 12:07:25;;;;;;;50.25;24.40;;;;;;;23.42;30.78;102898.38;5112069;28;20452;-75
2022/03/21 12:09:55;;;;;;;49.90;23.58;;;;;;;23.95;30.81;102904.31;5111289;28;20222;-76
2022/03/21 12:12:23;;;;;;;46.25;25.58;;;;;;;24.07;30.06;102894.09;5093802;28;20028;-76
2022/03/21 12:14:58;;;;;;;48.65;25.35;;;;;;;22.48;32.45;102889.88;5111405;28;20601;-74
2022/03/21 12:20:46;;;;;;;48.03;24.63;;;;;;;22.70;33.21;102889.19;5111654;28;20372;-76
2022/03/21 12:23:21;;;;;;;45.92;24.60;;;;;;;22.85;32.99;102884.06;5111838;28;20035;-75
2022/03/21 12:29:34;;;;;;;43.85;24.00;;;;;;;22.85;33.10;102870.41;5111933;28;20085;-76
2022/03/21 12:32:23;;;;;;;47.50;24.98;;;;;;;23.35;32.68;102877.75;5111101;28;20058;-76
2022/03/21 12:34:49;;;;;;;42.67;22.60;;;;;;;23.98;30.69;102871.81;5111685;28;20027;-75
2022/03/21 12:37:41;;;;;;;47.00;24.20;;;;;;;24.52;30.31;102877.38;5111636;28;20118;-76
2022/03/21 12:40:13;;;;;;;40.25;22.95;;;;;;;23.73;31.01;102882.44;5112168;28;20028;-76
2022/03/21 12:42:43;;;;;;;39.17;22.58;;;;;;;23.12;31.48;102876.84;5111582;28;20072;-75
2022/03/21 12:45:15;;;;;;;37.72;20.75;;;;;;;22.75;33.35;102872.91;5092729;28;20043;-76
2022/03/21 12:47:40;;;;;;;38.00;20.80;;;;;;;22.58;33.97;102864.72;5111701;28;20055;-75
2022/03/21 12:50:06;;;;;;;43.42;22.90;;;;;;;22.52;32.94;102871.97;5110913;28;20483;-75
2022/03/21 12:56:01;;;;;;;40.22;20.85;;;;;;;23.07;32.62;102873.22;5111715;28;20086;-77
2022/03/21 12:58:26;;;;;;;37.40;20.50;;;;;;;23.38;32.29;102863.59;5093171;28;20027;-75
2022/03/21 13:19:22;;;;;;;33.10;18.13;;;;;;;22.38;33.10;102854.25;5114988;28;20038;-76
2022/03/21 13:21:49;;;;;;;38.20;19.90;;;;;;;23.24;32.83;102860.41;5114703;28;20027;-75
2022/03/21 13:24:16;;;;;;;31.40;18.17;;;;;;;23.79;31.49;102851.38;5114036;28;20411;-77
2022/03/21 13:26:44;;;;;;;35.50;18.92;;;;;;;23.69;31.09;102859.41;5114552;28;20045;-76
2022/03/21 13:29:13;;;;;;;39.55;18.92;;;;;;;23.56;31.91;102857.88;5114464;28;20028;-76
2022/03/21 13:31:38;;;;;;;36.05;19.15;;;;;;;23.11;32.75;102855.25;5113690;28;20039;-75
2022/03/21 13:34:08;;;;;;;37.58;19.60;;;;;;;23.21;32.08;102854.59;5096204;28;20441;-75
2022/03/21 13:36:41;;;;;;;37.70;19.77;;;;;;;23.26;31.43;102855.50;5095256;28;20058;-75
2022/03/21 13:39:23;;;;;;;42.08;19.38;;;;;;;22.56;32.51;102853.22;5096078;28;20069;-75
2022/03/21 13:41:58;;;;;;;36.47;19.00;;;;;;;21.79;34.53;102850.84;5113702;28;20498;-75
2022/03/21 13:44:28;;;;;;;30.48;17.25;;;;;;;21.65;34.72;102844.81;5114235;28;20027;-76
2022/03/21 13:47:05;;;;;;;39.80;20.13;;;;;;;22.25;34.32;102841.72;5114234;28;20110;-76
2022/03/21 13:49:55;;;;;;;34.78;18.73;;;;;;;23.13;33.41;102840.31;5113230;28;20101;-76
2022/03/21 13:52:43;;;;;;;36.72;18.95;;;;;;;23.73;31.71;102849.66;5114049;28;20100;-75
2022/03/21 13:55:11;;;;;;;34.20;18.38;;;;;;;23.17;32.91;102844.19;5113044;28;20047;-75
2022/03/21 13:57:44;;;;;;;37.08;20.95;;;;;;;22.46;34.33;102837.50;5114100;28;20503;-75
2022/03/21 14:00:10;;;;;;;36.30;19.88;;;;;;;22.08;34.41;102843.59;5095349;28;20047;-75
2022/03/21 14:02:47;;;;;;;37.63;19.30;;;;;;;21.60;36.25;102835.72;5095547;28;20030;-75
2022/03/21 14:05:29;;;;;;;34.95;19.02;;;;;;;21.46;35.63;102839.78;5094868;28;20063;-75
2022/03/21 14:08:14;;;;;;;34.55;19.13;;;;;;;21.38;35.68;102834.66;5095579;28;20023;-75
2022/03/21 14:10:42;;;;;;;36.75;19.25;;;;;;;21.14;36.63;102831.94;5113414;28;20034;-76
2022/03/21 14:13:19;;;;;;;35.42;19.65;;;;;;;20.86;36.56;102819.03;5112508;28;20032;-75
2022/03/21 14:15:45;;;;;;;34.75;18.80;;;;;;;20.87;37.46;102831.56;5113774;28;20485;-78
2022/03/21 14:18:11;;;;;;;39.88;20.33;;;;;;;20.87;37.01;102822.56;5113082;28;20069;-81
2022/03/21 14:23:58;;;;;;;38.22;18.73;;;;;;;20.70;37.64;102809.66;5113980;28;20046;-80
2022/03/21 14:26:38;;;;;;;36.83;19.60;;;;;;;20.90;36.72;102822.09;5113761;28;20027;-74
2022/03/21 14:29:07;;;;;;;37.30;19.33;;;;;;;20.84;36.30;102814.88;5112675;28;20281;-75
2022/03/21 14:31:36;;;;;;;37.28;20.20;;;;;;;20.85;36.43;102813.81;5113507;28;20058;-78
2022/03/21 14:37:23;;;;;;;36.53;19.17;;;;;;;20.54;36.99;102806.78;5113418;28;20081;-78
2022/03/21 14:46:47;;;;;;;37.97;17.05;;;;;;;20.07;39.32;102806.56;5113745;28;20180;-79
2022/03/21 14:49:12;;;;;;;44.70;17.85;;;;;;;20.14;38.62;102799.16;5113005;28;20069;-79
2022/03/21 14:51:38;;;;;;;36.57;19.37;;;;;;;20.19;38.17;102796.56;5112233;28;20071;-79
2022/03/21 14:54:04;;;;;;;34.80;19.70;;;;;;;20.16;39.25;102797.03;5113045;28;20276;-79
2022/03/21 14:59:51;;;;;;;36.58;19.30;;;;;;;20.27;37.75;102798.16;5112974;28;20161;-78
2022/03/21 15:02:18;;;;;;;39.60;18.45;;;;;;;20.34;37.44;102793.44;5112885;28;20118;-76
2022/03/21 15:04:43;;;;;;;35.05;19.27;;;;;;;20.32;37.65;102795.56;5094070;28;20071;-77
2022/03/21 15:10:31;;;;;;;35.30;17.52;;;;;;;20.38;38.09;102794.66;5113117;28;20359;-77
2022/03/21 15:16:18;;;;;;;34.58;17.80;;;;;;;20.24;38.62;102780.44;5112983;28;20034;-77
2022/03/21 15:22:05;;;;;;;38.55;16.02;;;;;;;18.94;40.60;102793.38;5112709;28;20042;-77
2022/03/21 15:24:31;;;;;;;28.08;16.45;;;;;;;18.69;42.69;102787.13;5112645;28;20028;-76
2022/03/21 15:26:56;;;;;;;31.13;17.00;;;;;;;18.60;41.72;102789.25;5093816;28;20495;-75
2022/03/21 15:29:22;;;;;;;30.83;15.93;;;;;;;18.55;42.07;102775.53;5112748;28;20110;-76
2022/03/21 15:31:47;;;;;;;27.20;16.05;;;;;;;18.61;42.82;102785.47;5111743;28;20114;-76
2022/03/21 15:34:12;;;;;;;31.80;15.48;;;;;;;18.53;42.46;102773.03;5094257;28;20456;-76
2022/03/21 15:42:43;;;;;;;31.40;15.95;;;;;;;18.87;42.04;102785.31;5112704;28;20078;-78
2022/03/21 15:45:09;;;;;;;30.25;16.58;;;;;;;18.98;41.24;102780.19;5093667;28;20531;-76
2022/03/21 15:47:34;;;;;;;29.15;16.90;;;;;;;19.05;43.39;102781.78;5112316;28;20032;-78
2022/03/21 15:50:02;;;;;;;29.40;15.55;;;;;;;19.19;42.00;102774.38;5093499;28;20468;-76
2022/03/21 15:55:50;;;;;;;39.15;17.20;;;;;;;19.35;40.25;102776.47;5112418;28;20076;-76
2022/03/21 15:58:18;;;;;;;36.97;18.70;;;;;;;19.16;42.91;102777.53;5112134;28;20110;-78
2022/03/21 16:00:44;;;;;;;31.98;18.88;;;;;;;19.06;41.60;102779.91;5093174;28;20725;-77
2022/03/21 16:03:10;;;;;;;31.17;18.83;;;;;;;18.88;42.20;102776.13;5093935;28;20027;-77
2022/03/21 16:05:35;;;;;;;34.75;19.05;;;;;;;18.71;43.10;102780.41;5111985;28;20044;-75
2022/03/21 16:08:01;;;;;;;32.67;19.13;;;;;;;18.61;42.50;102771.94;5111249;28;20039;-76
2022/03/21 16:13:48;;;;;;;35.97;17.92;;;;;;;18.56;43.85;102769.06;5112302;28;20058;-76
2022/03/21 16:19:35;;;;;;;32.83;18.20;;;;;;;18.43;43.78;102772.69;5112173;28;20280;-75
2022/03/21 16:22:00;;;;;;;30.50;17.83;;;;;;;18.42;43.39;102778.31;5111992;28;20023;-76
2022/03/21 16:27:47;;;;;;;36.25;18.35;;;;;;;18.40;46.86;102781.25;5112171;28;20422;-76
2022/03/21 16:30:13;;;;;;;28.47;16.43;;;;;;;18.31;45.82;102771.72;5111046;28;20052;-74